sensor_id;sensor_type;location;lat;lon;timestamp;pressure;altitude;pressure_sealevel;temperature;humidity
62895;BME280;49204;44.916;37.998;2023-01-29T00:00:17;100919.02;;;4.67;78.53
62895;BME280;49204;44.916;37.998;2023-01-29T00:02:45;100920.31;;;4.69;78.64
62895;BME280;49204;44.916;37.998;2023-01-29T00:05:14;100915.88;;;4.74;78.81
62895;BME280;49204;44.916;37.998;2023-01-29T00:07:43;100923.22;;;4.79;78.82
62895;BME280;49204;44.916;37.998;2023-01-29T00:10:11;100917.50;;;4.84;78.79
62895;BME280;49204;44.916;37.998;2023-01-29T00:12:40;100917.88;;;4.88;78.70
62895;BME280;49204;44.916;37.998;2023-01-29T00:15:09;100918.72;;;4.90;78.72
62895;BME280;49204;44.916;37.998;2023-01-29T00:17:37;100920.46;;;4.91;78.54
62895;BME280;49204;44.916;37.998;2023-01-29T00:20:07;100911.70;;;4.95;78.49
62895;BME280;49204;44.916;37.998;2023-01-29T00:22:35;100916.05;;;4.96;78.30
62895;BME280;49204;44.916;37.998;2023-01-29T00:25:05;100910.91;;;4.89;78.11
62895;BME280;49204;44.916;37.998;2023-01-29T00:27:33;100921.50;;;4.78;77.91
62895;BME280;49204;44.916;37.998;2023-01-29T00:30:04;100916.55;;;4.53;77.66
62895;BME280;49204;44.916;37.998;2023-01-29T00:32:41;100920.74;;;4.29;77.46
62895;BME280;49204;44.916;37.998;2023-01-29T00:35:10;100920.55;;;4.03;77.39
62895;BME280;49204;44.916;37.998;2023-01-29T00:37:39;100928.59;;;3.78;77.29
62895;BME280;49204;44.916;37.998;2023-01-29T00:40:09;100933.95;;;3.55;77.26
62895;BME280;49204;44.916;37.998;2023-01-29T00:42:38;100933.67;;;3.36;77.29
62895;BME280;49204;44.916;37.998;2023-01-29T00:45:24;100936.34;;;3.19;77.19
62895;BME280;49204;44.916;37.998;2023-01-29T00:47:53;100936.88;;;2.98;77.07
62895;BME280;49204;44.916;37.998;2023-01-29T00:50:21;100941.27;;;2.84;76.96
62895;BME280;49204;44.916;37.998;2023-01-29T00:52:50;100942.64;;;2.72;76.98
62895;BME280;49204;44.916;37.998;2023-01-29T00:55:21;100942.67;;;2.62;77.14
62895;BME280;49204;44.916;37.998;2023-01-29T00:57:49;100946.59;;;2.55;77.29
62895;BME280;49204;44.916;37.998;2023-01-29T01:00:18;100943.14;;;2.49;77.40
62895;BME280;49204;44.916;37.998;2023-01-29T01:02:47;100944.88;;;2.43;77.29
62895;BME280;49204;44.916;37.998;2023-01-29T01:05:34;100950.09;;;2.38;77.17
62895;BME280;49204;44.916;37.998;2023-01-29T01:08:03;100945.75;;;2.34;77.12
62895;BME280;49204;44.916;37.998;2023-01-29T01:10:34;100944.92;;;2.29;77.18
62895;BME280;49204;44.916;37.998;2023-01-29T01:13:05;100944.91;;;2.24;77.22
62895;BME280;49204;44.916;37.998;2023-01-29T01:15:36;100950.56;;;2.18;77.25
62895;BME280;49204;44.916;37.998;2023-01-29T01:18:05;100952.73;;;2.10;77.27
62895;BME280;49204;44.916;37.998;2023-01-29T01:20:34;100959.21;;;2.04;77.26
62895;BME280;49204;44.916;37.998;2023-01-29T01:23:03;100958.79;;;2.00;77.29
62895;BME280;49204;44.916;37.998;2023-01-29T01:25:32;100965.72;;;1.97;77.02
62895;BME280;49204;44.916;37.998;2023-01-29T01:28:01;100960.08;;;1.88;76.95
62895;BME280;49204;44.916;37.998;2023-01-29T01:30:29;100960.52;;;1.81;77.09
62895;BME280;49204;44.916;37.998;2023-01-29T01:32:59;100959.20;;;1.75;77.19
62895;BME280;49204;44.916;37.998;2023-01-29T01:35:28;100968.73;;;1.73;77.18
62895;BME280;49204;44.916;37.998;2023-01-29T01:37:56;100968.30;;;1.70;77.18
62895;BME280;49204;44.916;37.998;2023-01-29T01:40:25;100963.96;;;1.69;77.21
62895;BME280;49204;44.916;37.998;2023-01-29T01:42:56;100967.00;;;1.69;77.19
62895;BME280;49204;44.916;37.998;2023-01-29T01:45:33;100972.19;;;1.69;77.11
62895;BME280;49204;44.916;37.998;2023-01-29T01:48:06;100967.86;;;1.71;77.02
62895;BME280;49204;44.916;37.998;2023-01-29T01:53:27;100969.61;;;1.73;76.87
62895;BME280;49204;44.916;37.998;2023-01-29T01:55:58;100964.84;;;1.76;76.69
62895;BME280;49204;44.916;37.998;2023-01-29T01:58:44;100970.05;;;1.78;76.48
62895;BME280;49204;44.916;37.998;2023-01-29T02:01:08;100968.75;;;1.79;76.29
62895;BME280;49204;44.916;37.998;2023-01-29T02:03:43;100960.96;;;1.79;76.21
62895;BME280;49204;44.916;37.998;2023-01-29T02:06:30;100963.11;;;1.78;76.37
62895;BME280;49204;44.916;37.998;2023-01-29T02:09:24;100963.55;;;1.85;76.31
62895;BME280;49204;44.916;37.998;2023-01-29T02:12:11;100960.94;;;1.90;76.08
62895;BME280;49204;44.916;37.998;2023-01-29T02:14:37;100964.43;;;1.92;75.82
62895;BME280;49204;44.916;37.998;2023-01-29T02:17:09;100963.13;;;1.92;75.72
62895;BME280;49204;44.916;37.998;2023-01-29T02:20:02;100967.88;;;1.92;75.80
62895;BME280;49204;44.916;37.998;2023-01-29T02:28:27;100971.34;;;1.85;75.94
62895;BME280;49204;44.916;37.998;2023-01-29T02:30:58;100969.17;;;1.82;76.23
62895;BME280;49204;44.916;37.998;2023-01-29T02:36:40;100966.58;;;1.89;76.37
62895;BME280;49204;44.916;37.998;2023-01-29T02:39:16;100963.11;;;1.95;76.35
62895;BME280;49204;44.916;37.998;2023-01-29T02:41:59;100968.33;;;2.01;76.17
62895;BME280;49204;44.916;37.998;2023-01-29T02:44:37;100968.33;;;2.01;76.20
62895;BME280;49204;44.916;37.998;2023-01-29T02:47:22;100966.14;;;2.02;76.08
62895;BME280;49204;44.916;37.998;2023-01-29T02:52:56;100964.41;;;2.06;75.60
62895;BME280;49204;44.916;37.998;2023-01-29T02:55:23;100960.95;;;2.04;75.55
62895;BME280;49204;44.916;37.998;2023-01-29T02:57:55;100958.34;;;2.01;75.61
62895;BME280;49204;44.916;37.998;2023-01-29T03:00:29;100948.82;;;1.93;75.79
62895;BME280;49204;44.916;37.998;2023-01-29T03:05:50;100948.39;;;1.97;75.92
62895;BME280;49204;44.916;37.998;2023-01-29T03:08:31;100953.61;;;2.05;75.65
62895;BME280;49204;44.916;37.998;2023-01-29T03:10:56;100942.76;;;2.11;75.41
62895;BME280;49204;44.916;37.998;2023-01-29T03:13:41;100939.73;;;2.17;75.36
62895;BME280;49204;44.916;37.998;2023-01-29T03:16:37;100945.34;;;2.19;75.31
62895;BME280;49204;44.916;37.998;2023-01-29T03:19:04;100944.05;;;2.21;75.17
62895;BME280;49204;44.916;37.998;2023-01-29T03:21:37;100945.78;;;2.19;74.92
62895;BME280;49204;44.916;37.998;2023-01-29T03:24:36;100947.53;;;2.18;74.80
62895;BME280;49204;44.916;37.998;2023-01-29T03:27:27;100950.98;;;2.20;74.67
62895;BME280;49204;44.916;37.998;2023-01-29T03:30:14;100944.93;;;2.20;74.58
62895;BME280;49204;44.916;37.998;2023-01-29T03:33:08;100956.18;;;2.20;74.71
62895;BME280;49204;44.916;37.998;2023-01-29T03:35:42;100960.07;;;2.17;74.93
62895;BME280;49204;44.916;37.998;2023-01-29T03:38:11;100965.27;;;2.17;75.00
62895;BME280;49204;44.916;37.998;2023-01-29T03:40:48;100979.14;;;2.16;74.99
62895;BME280;49204;44.916;37.998;2023-01-29T03:46:07;100966.56;;;2.16;75.07
62895;BME280;49204;44.916;37.998;2023-01-29T03:48:54;100970.05;;;2.16;75.20
62895;BME280;49204;44.916;37.998;2023-01-29T03:51:35;100977.84;;;2.16;75.24
62895;BME280;49204;44.916;37.998;2023-01-29T03:54:14;100980.00;;;2.20;75.03
62895;BME280;49204;44.916;37.998;2023-01-29T03:59:24;100978.27;;;2.20;74.67
62895;BME280;49204;44.916;37.998;2023-01-29T04:01:53;100979.56;;;2.20;74.72
62895;BME280;49204;44.916;37.998;2023-01-29T04:04:37;100972.63;;;2.21;74.73
62895;BME280;49204;44.916;37.998;2023-01-29T04:07:18;100966.13;;;2.21;74.72
62895;BME280;49204;44.916;37.998;2023-01-29T04:10:08;100972.63;;;2.19;74.91
62895;BME280;49204;44.916;37.998;2023-01-29T04:13:04;100968.75;;;2.18;74.91
62895;BME280;49204;44.916;37.998;2023-01-29T04:15:13;100976.55;;;2.16;75.13
62895;BME280;49204;44.916;37.998;2023-01-29T04:17:49;100974.79;;;2.12;75.30
62895;BME280;49204;44.916;37.998;2023-01-29T04:20:21;100977.83;;;2.10;75.29
62895;BME280;49204;44.916;37.998;2023-01-29T04:22:51;100972.64;;;2.05;75.27
62895;BME280;49204;44.916;37.998;2023-01-29T04:25:23;100972.64;;;2.05;75.07
62895;BME280;49204;44.916;37.998;2023-01-29T04:28:19;100973.50;;;2.06;74.93
62895;BME280;49204;44.916;37.998;2023-01-29T04:33:20;100980.45;;;2.07;74.70
62895;BME280;49204;44.916;37.998;2023-01-29T04:41:29;100975.66;;;1.97;75.02
62895;BME280;49204;44.916;37.998;2023-01-29T04:52:54;100975.66;;;1.88;75.29
62895;BME280;49204;44.916;37.998;2023-01-29T04:57:24;100978.70;;;1.90;74.78
62895;BME280;49204;44.916;37.998;2023-01-29T05:02:50;100994.28;;;1.97;74.94
62895;BME280;49204;44.916;37.998;2023-01-29T05:05:21;100993.41;;;2.01;75.17
62895;BME280;49204;44.916;37.998;2023-01-29T05:07:50;101005.53;;;2.08;74.98
62895;BME280;49204;44.916;37.998;2023-01-29T05:10:20;101003.80;;;2.10;74.75
62895;BME280;49204;44.916;37.998;2023-01-29T05:13:00;101011.61;;;2.16;74.72
62895;BME280;49204;44.916;37.998;2023-01-29T05:15:36;101005.98;;;2.18;74.86
62895;BME280;49204;44.916;37.998;2023-01-29T05:18:05;101009.00;;;2.33;75.06
62895;BME280;49204;44.916;37.998;2023-01-29T05:20:40;101016.31;;;2.58;75.19
62895;BME280;49204;44.916;37.998;2023-01-29T05:23:16;101019.73;;;2.80;75.02
62895;BME280;49204;44.916;37.998;2023-01-29T05:25:46;101016.67;;;2.99;74.70
62895;BME280;49204;44.916;37.998;2023-01-29T05:28:15;101024.41;;;3.13;74.47
62895;BME280;49204;44.916;37.998;2023-01-29T05:30:49;101022.58;;;3.35;74.58
62895;BME280;49204;44.916;37.998;2023-01-29T05:33:29;101020.72;;;3.62;74.40
62895;BME280;49204;44.916;37.998;2023-01-29T05:35:54;101024.51;;;3.80;74.01
62895;BME280;49204;44.916;37.998;2023-01-29T05:38:23;101028.31;;;3.93;73.69
62895;BME280;49204;44.916;37.998;2023-01-29T05:40:52;101024.77;;;4.06;73.76
62895;BME280;49204;44.916;37.998;2023-01-29T05:43:23;101022.86;;;4.27;73.70
62895;BME280;49204;44.916;37.998;2023-01-29T05:45:53;101026.55;;;4.51;73.70
62895;BME280;49204;44.916;37.998;2023-01-29T05:48:23;101025.12;;;4.63;73.43
62895;BME280;49204;44.916;37.998;2023-01-29T05:50:52;101023.36;;;4.67;73.10
62895;BME280;49204;44.916;37.998;2023-01-29T05:53:21;101020.64;;;4.78;73.04
62895;BME280;49204;44.916;37.998;2023-01-29T05:55:50;101026.70;;;4.80;72.67
62895;BME280;49204;44.916;37.998;2023-01-29T05:58:18;101031.55;;;4.73;72.35
62895;BME280;49204;44.916;37.998;2023-01-29T06:00:47;101029.80;;;4.73;72.20
62895;BME280;49204;44.916;37.998;2023-01-29T06:03:15;101027.69;;;4.67;72.10
62895;BME280;49204;44.916;37.998;2023-01-29T06:05:44;101023.73;;;4.73;72.05
62895;BME280;49204;44.916;37.998;2023-01-29T06:08:13;101028.86;;;4.80;71.85
62895;BME280;49204;44.916;37.998;2023-01-29T06:10:41;101030.98;;;4.86;71.65
62895;BME280;49204;44.916;37.998;2023-01-29T06:13:10;101029.13;;;4.95;71.51
62895;BME280;49204;44.916;37.998;2023-01-29T06:15:39;101028.69;;;4.96;71.31
62895;BME280;49204;44.916;37.998;2023-01-29T06:18:07;101015.63;;;4.97;71.20
62895;BME280;49204;44.916;37.998;2023-01-29T06:20:36;101020.36;;;5.02;71.16
62895;BME280;49204;44.916;37.998;2023-01-29T06:23:05;101014.16;;;5.13;71.08
62895;BME280;49204;44.916;37.998;2023-01-29T06:25:34;101011.39;;;5.23;70.96
62895;BME280;49204;44.916;37.998;2023-01-29T06:28:03;101014.36;;;5.29;70.79
62895;BME280;49204;44.916;37.998;2023-01-29T06:30:31;101016.93;;;5.34;70.72
62895;BME280;49204;44.916;37.998;2023-01-29T06:33:00;101014.30;;;5.35;70.56
62895;BME280;49204;44.916;37.998;2023-01-29T06:35:29;101013.47;;;5.33;70.50
62895;BME280;49204;44.916;37.998;2023-01-29T06:37:58;101015.17;;;5.34;70.49
62895;BME280;49204;44.916;37.998;2023-01-29T06:40:26;101008.15;;;5.39;70.51
62895;BME280;49204;44.916;37.998;2023-01-29T06:42:55;101008.02;;;5.49;70.56
62895;BME280;49204;44.916;37.998;2023-01-29T06:45:23;101003.55;;;5.57;70.68
62895;BME280;49204;44.916;37.998;2023-01-29T06:47:53;101005.64;;;5.64;70.80
62895;BME280;49204;44.916;37.998;2023-01-29T06:50:22;101005.98;;;5.69;70.81
62895;BME280;49204;44.916;37.998;2023-01-29T06:52:50;101001.60;;;5.71;70.86
62895;BME280;49204;44.916;37.998;2023-01-29T06:55:19;100999.32;;;5.78;70.85
62895;BME280;49204;44.916;37.998;2023-01-29T06:57:47;101003.57;;;5.86;70.78
62895;BME280;49204;44.916;37.998;2023-01-29T07:00:17;100999.06;;;5.97;70.61
62895;BME280;49204;44.916;37.998;2023-01-29T07:02:48;100996.30;;;6.06;70.44
62895;BME280;49204;44.916;37.998;2023-01-29T07:05:17;101002.71;;;6.14;70.26
62895;BME280;49204;44.916;37.998;2023-01-29T07:07:46;100999.56;;;6.21;70.14
62895;BME280;49204;44.916;37.998;2023-01-29T07:10:15;100997.27;;;6.28;69.95
62895;BME280;49204;44.916;37.998;2023-01-29T07:12:43;100995.32;;;6.39;69.82
62895;BME280;49204;44.916;37.998;2023-01-29T07:15:13;100993.02;;;6.46;69.57
62895;BME280;49204;44.916;37.998;2023-01-29T07:17:44;100992.98;;;6.49;69.38
62895;BME280;49204;44.916;37.998;2023-01-29T07:20:12;100994.64;;;6.53;69.39
62895;BME280;49204;44.916;37.998;2023-01-29T07:22:41;100992.42;;;6.54;69.45
62895;BME280;49204;44.916;37.998;2023-01-29T07:25:09;100995.78;;;6.63;69.54
62895;BME280;49204;44.916;37.998;2023-01-29T07:27:38;100988.15;;;6.73;69.56
62895;BME280;49204;44.916;37.998;2023-01-29T07:30:08;100993.20;;;6.82;69.48
62895;BME280;49204;44.916;37.998;2023-01-29T07:32:37;100989.58;;;6.89;69.44
62895;BME280;49204;44.916;37.998;2023-01-29T07:35:06;100985.84;;;7.03;69.44
62895;BME280;49204;44.916;37.998;2023-01-29T07:37:35;100994.26;;;7.17;69.27
62895;BME280;49204;44.916;37.998;2023-01-29T07:40:04;100997.11;;;7.27;69.42
62895;BME280;49204;44.916;37.998;2023-01-29T07:42:35;100995.17;;;7.35;69.55
62895;BME280;49204;44.916;37.998;2023-01-29T07:45:05;100991.81;;;7.50;69.43
62895;BME280;49204;44.916;37.998;2023-01-29T07:47:33;100992.73;;;7.67;69.33
62895;BME280;49204;44.916;37.998;2023-01-29T07:50:02;100991.30;;;7.91;68.97
62895;BME280;49204;44.916;37.998;2023-01-29T07:52:32;100989.83;;;8.15;68.66
62895;BME280;49204;44.916;37.998;2023-01-29T07:55:02;100992.99;;;8.47;68.60
62895;BME280;49204;44.916;37.998;2023-01-29T07:57:31;100993.13;;;8.91;68.24
62895;BME280;49204;44.916;37.998;2023-01-29T07:59:59;100994.34;;;9.68;67.57
62895;BME280;49204;44.916;37.998;2023-01-29T08:02:28;100989.34;;;9.89;67.31
62895;BME280;49204;44.916;37.998;2023-01-29T08:04:56;100986.34;;;9.99;67.01
62895;BME280;49204;44.916;37.998;2023-01-29T08:07:25;100991.92;;;10.03;67.02
62895;BME280;49204;44.916;37.998;2023-01-29T08:09:53;100983.70;;;9.99;67.10
62895;BME280;49204;44.916;37.998;2023-01-29T08:12:22;100982.52;;;9.96;67.12
62895;BME280;49204;44.916;37.998;2023-01-29T08:14:50;100986.08;;;9.94;67.32
62895;BME280;49204;44.916;37.998;2023-01-29T08:17:19;100983.06;;;9.93;67.29
62895;BME280;49204;44.916;37.998;2023-01-29T08:19:48;100974.80;;;9.90;67.20
62895;BME280;49204;44.916;37.998;2023-01-29T08:22:16;100977.30;;;9.95;67.12
62895;BME280;49204;44.916;37.998;2023-01-29T08:24:45;100974.45;;;10.01;67.16
62895;BME280;49204;44.916;37.998;2023-01-29T08:27:13;100978.27;;;10.05;67.21
62895;BME280;49204;44.916;37.998;2023-01-29T08:29:42;100981.78;;;10.18;67.28
62895;BME280;49204;44.916;37.998;2023-01-29T08:32:11;100973.28;;;10.23;67.10
62895;BME280;49204;44.916;37.998;2023-01-29T08:34:39;100968.31;;;10.27;66.95
62895;BME280;49204;44.916;37.998;2023-01-29T08:37:08;100967.84;;;10.42;66.79
62895;BME280;49204;44.916;37.998;2023-01-29T08:39:37;100962.11;;;10.68;66.38
62895;BME280;49204;44.916;37.998;2023-01-29T08:42:05;100957.41;;;10.76;66.03
62895;BME280;49204;44.916;37.998;2023-01-29T08:44:34;100953.02;;;10.89;65.72
62895;BME280;49204;44.916;37.998;2023-01-29T08:47:02;100951.19;;;11.14;65.39
62895;BME280;49204;44.916;37.998;2023-01-29T08:49:31;100945.59;;;11.34;64.80
62895;BME280;49204;44.916;37.998;2023-01-29T08:52:00;100948.53;;;11.38;64.28
62895;BME280;49204;44.916;37.998;2023-01-29T08:54:28;100942.73;;;11.40;64.36
62895;BME280;49204;44.916;37.998;2023-01-29T08:56:57;100946.77;;;11.49;64.27
62895;BME280;49204;44.916;37.998;2023-01-29T08:59:25;100937.16;;;11.70;64.09
62895;BME280;49204;44.916;37.998;2023-01-29T09:01:54;100939.16;;;12.07;63.48
62895;BME280;49204;44.916;37.998;2023-01-29T09:04:23;100934.24;;;12.80;62.40
62895;BME280;49204;44.916;37.998;2023-01-29T09:06:52;100923.85;;;13.79;60.67
62895;BME280;49204;44.916;37.998;2023-01-29T09:09:21;100919.28;;;13.92;60.14
62895;BME280;49204;44.916;37.998;2023-01-29T09:11:50;100922.79;;;13.83;59.64
62895;BME280;49204;44.916;37.998;2023-01-29T09:14:18;100917.95;;;13.74;59.75
62895;BME280;49204;44.916;37.998;2023-01-29T09:16:47;100913.02;;;13.58;59.19
62895;BME280;49204;44.916;37.998;2023-01-29T09:19:16;100913.84;;;13.49;59.60
62895;BME280;49204;44.916;37.998;2023-01-29T09:21:44;100912.11;;;13.29;59.80
62895;BME280;49204;44.916;37.998;2023-01-29T09:24:13;100908.13;;;13.67;59.17
62895;BME280;49204;44.916;37.998;2023-01-29T09:26:41;100905.23;;;14.42;57.66
62895;BME280;49204;44.916;37.998;2023-01-29T09:29:10;100892.44;;;15.24;56.26
62895;BME280;49204;44.916;37.998;2023-01-29T09:31:39;100893.59;;;16.34;54.40
62895;BME280;49204;44.916;37.998;2023-01-29T09:34:07;100889.16;;;16.42;53.70
62895;BME280;49204;44.916;37.998;2023-01-29T09:36:36;100883.28;;;15.53;54.98
62895;BME280;49204;44.916;37.998;2023-01-29T09:39:04;100888.72;;;14.79;56.47
62895;BME280;49204;44.916;37.998;2023-01-29T09:44:23;100886.17;;;14.35;57.26
62895;BME280;49204;44.916;37.998;2023-01-29T09:46:50;100874.72;;;14.68;56.92
62895;BME280;49204;44.916;37.998;2023-01-29T09:49:35;100877.17;;;14.55;57.23
62895;BME280;49204;44.916;37.998;2023-01-29T09:52:13;100872.19;;;14.40;57.45
62895;BME280;49204;44.916;37.998;2023-01-29T09:57:33;100879.91;;;13.40;58.96
62895;BME280;49204;44.916;37.998;2023-01-29T10:00:00;100878.89;;;13.15;59.69
62895;BME280;49204;44.916;37.998;2023-01-29T10:05:21;100875.25;;;12.99;60.17
62895;BME280;49204;44.916;37.998;2023-01-29T10:07:55;100873.56;;;13.06;60.16
62895;BME280;49204;44.916;37.998;2023-01-29T10:10:48;100873.40;;;13.09;59.99
62895;BME280;49204;44.916;37.998;2023-01-29T10:13:43;100862.86;;;13.18;59.90
62895;BME280;49204;44.916;37.998;2023-01-29T10:16:17;100861.70;;;13.24;59.84
62895;BME280;49204;44.916;37.998;2023-01-29T10:22:01;100854.70;;;13.42;59.49
62895;BME280;49204;44.916;37.998;2023-01-29T10:27:16;100849.34;;;13.43;59.57
62895;BME280;49204;44.916;37.998;2023-01-29T10:29:47;100843.28;;;13.41;59.49
62895;BME280;49204;44.916;37.998;2023-01-29T10:32:18;100843.83;;;13.39;59.40
62895;BME280;49204;44.916;37.998;2023-01-29T10:37:35;100835.36;;;13.67;58.97
62895;BME280;49204;44.916;37.998;2023-01-29T10:39:54;100833.07;;;14.12;58.39
62895;BME280;49204;44.916;37.998;2023-01-29T10:42:30;100830.56;;;14.60;57.47
62895;BME280;49204;44.916;37.998;2023-01-29T10:47:42;100821.98;;;15.57;55.87
62895;BME280;49204;44.916;37.998;2023-01-29T10:55:54;100815.48;;;15.17;56.90
62895;BME280;49204;44.916;37.998;2023-01-29T10:58:42;100819.29;;;14.88;57.15
62895;BME280;49204;44.916;37.998;2023-01-29T11:01:11;100816.07;;;14.58;57.65
62895;BME280;49204;44.916;37.998;2023-01-29T11:03:39;100819.31;;;14.39;57.87
62895;BME280;49204;44.916;37.998;2023-01-29T11:06:27;100818.30;;;14.33;58.15
62895;BME280;49204;44.916;37.998;2023-01-29T11:09:07;100815.06;;;14.27;58.31
62895;BME280;49204;44.916;37.998;2023-01-29T11:11:39;100816.70;;;14.21;58.38
62895;BME280;49204;44.916;37.998;2023-01-29T11:14:18;100814.23;;;14.09;58.55
62895;BME280;49204;44.916;37.998;2023-01-29T11:16:44;100816.45;;;13.93;58.69
62895;BME280;49204;44.916;37.998;2023-01-29T11:19:13;100810.16;;;13.78;58.77
62895;BME280;49204;44.916;37.998;2023-01-29T11:21:59;100806.33;;;13.66;58.89
62895;BME280;49204;44.916;37.998;2023-01-29T11:24:30;100804.62;;;13.56;59.00
62895;BME280;49204;44.916;37.998;2023-01-29T11:26:59;100811.91;;;13.42;59.45
62895;BME280;49204;44.916;37.998;2023-01-29T11:29:33;100813.39;;;13.30;59.61
62895;BME280;49204;44.916;37.998;2023-01-29T11:32:41;100812.86;;;13.22;59.77
62895;BME280;49204;44.916;37.998;2023-01-29T11:35:04;100808.90;;;13.13;59.95
62895;BME280;49204;44.916;37.998;2023-01-29T11:37:40;100811.44;;;13.06;60.12
62895;BME280;49204;44.916;37.998;2023-01-29T11:40:37;100810.39;;;13.00;60.23
62895;BME280;49204;44.916;37.998;2023-01-29T11:43:33;100807.92;;;12.97;60.35
62895;BME280;49204;44.916;37.998;2023-01-29T11:46:02;100800.36;;;12.89;60.48
62895;BME280;49204;44.916;37.998;2023-01-29T11:48:38;100802.84;;;12.84;60.59
62895;BME280;49204;44.916;37.998;2023-01-29T11:51:03;100806.83;;;12.73;60.74
62895;BME280;49204;44.916;37.998;2023-01-29T11:53:41;100805.29;;;12.59;60.97
62895;BME280;49204;44.916;37.998;2023-01-29T11:58:49;100815.80;;;12.31;61.47
62895;BME280;49204;44.916;37.998;2023-01-29T12:01:29;100815.05;;;12.19;61.65
62895;BME280;49204;44.916;37.998;2023-01-29T12:03:53;100812.41;;;12.09;61.81
62895;BME280;49204;44.916;37.998;2023-01-29T12:06:26;100811.49;;;12.00;61.96
62895;BME280;49204;44.916;37.998;2023-01-29T12:08:56;100809.28;;;11.89;62.20
62895;BME280;49204;44.916;37.998;2023-01-29T12:11:31;100814.48;;;11.80;62.41
62895;BME280;49204;44.916;37.998;2023-01-29T12:14:02;100817.39;;;11.74;62.48
62895;BME280;49204;44.916;37.998;2023-01-29T12:16:55;100821.27;;;11.65;62.63
62895;BME280;49204;44.916;37.998;2023-01-29T12:22:13;100819.08;;;11.44;63.04
62895;BME280;49204;44.916;37.998;2023-01-29T12:25:04;100824.88;;;11.42;63.13
62895;BME280;49204;44.916;37.998;2023-01-29T12:27:40;100828.95;;;11.39;63.22
62895;BME280;49204;44.916;37.998;2023-01-29T12:30:24;100832.53;;;11.38;63.22
62895;BME280;49204;44.916;37.998;2023-01-29T12:32:58;100832.70;;;11.33;63.27
62895;BME280;49204;44.916;37.998;2023-01-29T12:38:14;100837.61;;;11.20;63.58
62895;BME280;49204;44.916;37.998;2023-01-29T12:43:30;100847.07;;;10.92;64.07
62895;BME280;49204;44.916;37.998;2023-01-29T12:45:56;100855.95;;;10.78;64.31
62895;BME280;49204;44.916;37.998;2023-01-29T12:48:35;100846.97;;;10.60;64.75
62895;BME280;49204;44.916;37.998;2023-01-29T12:51:16;100851.67;;;10.52;64.83
62895;BME280;49204;44.916;37.998;2023-01-29T12:56:37;100851.08;;;10.43;64.79
62895;BME280;49204;44.916;37.998;2023-01-29T12:59:27;100860.81;;;10.41;64.86
62895;BME280;49204;44.916;37.998;2023-01-29T13:01:55;100867.91;;;10.39;64.94
62895;BME280;49204;44.916;37.998;2023-01-29T13:04:34;100872.60;;;10.31;65.06
62895;BME280;49204;44.916;37.998;2023-01-29T13:07:12;100873.80;;;10.21;65.25
62895;BME280;49204;44.916;37.998;2023-01-29T13:09:43;100869.08;;;10.05;65.61
62895;BME280;49204;44.916;37.998;2023-01-29T13:12:16;100874.05;;;9.88;66.02
62895;BME280;49204;44.916;37.998;2023-01-29T13:14:47;100874.96;;;9.74;66.43
62895;BME280;49204;44.916;37.998;2023-01-29T13:17:32;100877.72;;;9.57;66.75
62895;BME280;49204;44.916;37.998;2023-01-29T13:20:09;100883.70;;;9.47;67.18
62895;BME280;49204;44.916;37.998;2023-01-29T13:22:37;100879.80;;;9.33;67.13
62895;BME280;49204;44.916;37.998;2023-01-29T13:25:19;100886.66;;;9.23;67.36
62895;BME280;49204;44.916;37.998;2023-01-29T13:27:44;100898.77;;;9.14;67.77
62895;BME280;49204;44.916;37.998;2023-01-29T13:30:25;100905.83;;;9.12;67.95
62895;BME280;49204;44.916;37.998;2023-01-29T13:32:55;100903.67;;;9.12;68.14
62895;BME280;49204;44.916;37.998;2023-01-29T13:35:28;100902.20;;;9.16;68.09
62895;BME280;49204;44.916;37.998;2023-01-29T13:37:57;100898.17;;;9.19;68.04
62895;BME280;49204;44.916;37.998;2023-01-29T13:40:27;100895.97;;;9.20;68.03
62895;BME280;49204;44.916;37.998;2023-01-29T13:42:57;100894.73;;;9.17;68.22
62895;BME280;49204;44.916;37.998;2023-01-29T13:45:34;100894.83;;;9.14;68.48
62895;BME280;49204;44.916;37.998;2023-01-29T13:48:28;100892.78;;;9.09;68.75
62895;BME280;49204;44.916;37.998;2023-01-29T13:51:02;100890.86;;;9.01;69.04
62895;BME280;49204;44.916;37.998;2023-01-29T13:53:39;100892.95;;;8.89;69.26
62895;BME280;49204;44.916;37.998;2023-01-29T13:56:34;100893.95;;;8.85;69.55
62895;BME280;49204;44.916;37.998;2023-01-29T13:59:01;100891.21;;;8.88;69.60
62895;BME280;49204;44.916;37.998;2023-01-29T14:04:22;100889.50;;;8.73;70.34
62895;BME280;49204;44.916;37.998;2023-01-29T14:06:56;100890.75;;;8.74;70.50
62895;BME280;49204;44.916;37.998;2023-01-29T14:10:00;100901.25;;;8.74;70.87
62895;BME280;49204;44.916;37.998;2023-01-29T14:12:51;100900.36;;;8.75;71.01
62895;BME280;49204;44.916;37.998;2023-01-29T14:17:26;100897.73;;;8.75;71.29
62895;BME280;49204;44.916;37.998;2023-01-29T14:19:59;100905.80;;;8.69;71.46
62895;BME280;49204;44.916;37.998;2023-01-29T14:22:27;100908.00;;;8.68;71.66
62895;BME280;49204;44.916;37.998;2023-01-29T14:25:02;100908.92;;;8.67;71.79
62895;BME280;49204;44.916;37.998;2023-01-29T14:27:32;100905.34;;;8.69;71.90
62895;BME280;49204;44.916;37.998;2023-01-29T14:30:06;100903.98;;;8.71;71.99
62895;BME280;49204;44.916;37.998;2023-01-29T14:32:38;100907.61;;;8.67;72.09
62895;BME280;49204;44.916;37.998;2023-01-29T14:35:22;100906.77;;;8.65;72.25
62895;BME280;49204;44.916;37.998;2023-01-29T14:37:56;100905.45;;;8.65;72.35
62895;BME280;49204;44.916;37.998;2023-01-29T14:40:22;100905.76;;;8.71;71.98
62895;BME280;49204;44.916;37.998;2023-01-29T14:43:03;100914.48;;;8.71;71.99
62895;BME280;49204;44.916;37.998;2023-01-29T14:45:35;100913.67;;;8.69;72.18